createdAt,value
2018-07-28T00:01:12.629Z,15.53
2018-07-28T00:03:41.301Z,20.10
2018-07-28T00:06:10.003Z,15.60
2018-07-28T00:08:38.659Z,21.00
2018-07-28T00:11:07.271Z,16.23
2018-07-28T00:13:35.977Z,17.03
2018-07-28T00:16:04.650Z,15.87
2018-07-28T00:18:33.269Z,17.77
2018-07-28T00:21:01.956Z,14.97
2018-07-28T00:23:30.634Z,15.03
2018-07-28T00:26:05.377Z,18.80
2018-07-28T00:28:34.035Z,17.97
2018-07-28T00:31:02.646Z,15.53
2018-07-28T00:33:31.276Z,18.90
2018-07-28T00:35:59.946Z,14.37
2018-07-28T00:38:28.595Z,15.57
2018-07-28T00:40:57.275Z,19.10
2018-07-28T00:43:25.881Z,15.63
2018-07-28T00:45:54.529Z,15.50
2018-07-28T00:48:23.143Z,16.33
2018-07-28T00:50:51.744Z,17.50
2018-07-28T00:53:20.391Z,15.97
2018-07-28T00:55:48.999Z,17.57
2018-07-28T00:58:17.810Z,15.40
2018-07-28T01:00:47.085Z,14.90
2018-07-28T01:03:15.718Z,14.40
2018-07-28T01:05:44.317Z,15.13
2018-07-28T01:08:12.914Z,16.87
2018-07-28T01:10:41.587Z,14.87
2018-07-28T01:13:10.301Z,16.13
2018-07-28T01:15:38.945Z,17.33
2018-07-28T01:18:07.585Z,17.93
2018-07-28T01:20:36.209Z,17.63
2018-07-28T01:23:04.949Z,15.50
2018-07-28T01:25:33.604Z,15.67
2018-07-28T01:28:03.106Z,16.03
2018-07-28T01:30:32.777Z,16.10
2018-07-28T01:33:02.021Z,17.57
2018-07-28T01:35:30.670Z,17.80
2018-07-28T01:37:59.558Z,17.23
2018-07-28T01:40:28.147Z,19.83
2018-07-28T01:42:56.835Z,21.73
2018-07-28T01:45:25.421Z,18.73
2018-07-28T01:47:54.103Z,17.10
2018-07-28T01:50:22.739Z,23.73
2018-07-28T01:52:51.322Z,24.10
2018-07-28T01:55:20.018Z,21.27
2018-07-28T01:57:48.649Z,21.93
2018-07-28T02:00:17.262Z,24.30
2018-07-28T02:02:45.953Z,25.90
2018-07-28T02:05:14.612Z,28.77
2018-07-28T02:07:43.237Z,25.00
2018-07-28T02:10:11.903Z,25.10
2018-07-28T02:12:40.549Z,26.23
2018-07-28T02:15:09.618Z,22.23
2018-07-28T02:17:38.262Z,19.83
2018-07-28T02:20:07.541Z,20.37
2018-07-28T02:22:36.157Z,17.90
2018-07-28T02:25:06.525Z,17.03
2018-07-28T02:27:35.170Z,15.20
2018-07-28T02:30:04.330Z,15.40
2018-07-28T02:32:32.958Z,18.23
2018-07-28T02:35:01.578Z,15.23
2018-07-28T02:37:30.182Z,15.27
2018-07-28T02:39:58.758Z,19.47
2018-07-28T02:42:27.374Z,16.00
2018-07-28T02:44:56.034Z,15.67
2018-07-28T02:47:24.750Z,16.77
2018-07-28T02:49:53.426Z,15.67
2018-07-28T02:52:22.071Z,16.67
2018-07-28T02:54:50.705Z,17.97
2018-07-28T02:57:19.309Z,18.47
2018-07-28T02:59:47.909Z,17.07
2018-07-28T03:02:16.554Z,21.87
2018-07-28T03:04:45.166Z,19.23
2018-07-28T03:07:13.860Z,17.83
2018-07-28T03:09:42.506Z,18.13
2018-07-28T03:12:11.105Z,20.73
2018-07-28T03:14:39.770Z,19.00
2018-07-28T03:17:08.388Z,19.87
2018-07-28T03:19:37.267Z,18.67
2018-07-28T03:22:05.996Z,21.30
2018-07-28T03:24:34.694Z,17.57
2018-07-28T03:27:03.372Z,18.77
2018-07-28T03:29:31.982Z,16.90
2018-07-28T03:32:00.671Z,22.27
2018-07-28T03:34:29.297Z,17.57
2018-07-28T03:36:57.970Z,17.73
2018-07-28T03:39:26.612Z,16.50
2018-07-28T03:41:55.273Z,16.93
2018-07-28T03:44:24.182Z,17.33
2018-07-28T03:46:52.868Z,27.03
2018-07-28T03:49:21.532Z,17.33
2018-07-28T03:51:50.180Z,16.10
2018-07-28T03:54:18.854Z,16.30
2018-07-28T03:59:46.969Z,15.03
2018-07-28T04:02:15.621Z,15.57
2018-07-28T04:04:44.275Z,15.47
2018-07-28T04:07:12.958Z,16.43
2018-07-28T04:09:41.630Z,18.10
2018-07-28T04:12:10.239Z,20.70
2018-07-28T04:14:38.909Z,22.10
2018-07-28T04:17:07.587Z,19.53
2018-07-28T04:19:36.193Z,18.90
2018-07-28T04:22:04.941Z,16.90
2018-07-28T04:24:33.593Z,16.17
2018-07-28T04:27:02.281Z,16.33
2018-07-28T04:29:30.983Z,16.13
2018-07-28T04:31:59.675Z,17.17
2018-07-28T04:34:28.910Z,17.20
2018-07-28T04:36:57.925Z,17.53
2018-07-28T04:39:26.513Z,15.53
2018-07-28T04:41:55.106Z,16.67
2018-07-28T04:44:23.728Z,16.17
2018-07-28T04:46:52.336Z,16.77
2018-07-28T04:49:20.999Z,15.63
2018-07-28T04:51:49.937Z,15.87
2018-07-28T04:54:18.582Z,17.20
2018-07-28T04:56:47.183Z,17.00
2018-07-28T04:59:15.881Z,17.30
2018-07-28T05:01:44.533Z,17.87
2018-07-28T05:04:13.156Z,18.43
2018-07-28T05:06:41.824Z,18.97
2018-07-28T05:09:11.150Z,18.57
2018-07-28T05:11:39.829Z,17.57
2018-07-28T05:14:08.534Z,18.20
2018-07-28T05:16:37.130Z,16.20
2018-07-28T05:19:05.832Z,16.63
2018-07-28T05:21:34.501Z,15.67
2018-07-28T05:24:03.112Z,16.33
2018-07-28T05:26:31.754Z,16.80
2018-07-28T05:29:00.356Z,15.63
2018-07-28T05:31:28.962Z,15.70
2018-07-28T05:33:57.550Z,16.53
2018-07-28T05:36:26.174Z,16.03
2018-07-28T05:38:54.831Z,17.10
2018-07-28T05:41:23.417Z,16.97
2018-07-28T05:43:52.054Z,17.13
2018-07-28T05:46:20.662Z,16.53
2018-07-28T05:48:49.310Z,17.13
2018-07-28T05:51:17.914Z,17.50
2018-07-28T05:53:46.616Z,15.30
2018-07-28T05:56:15.229Z,17.27
2018-07-28T05:58:44.400Z,15.30
2018-07-28T06:01:13.175Z,15.80
2018-07-28T06:03:42.040Z,17.47
2018-07-28T06:06:10.744Z,15.67
2018-07-28T06:08:39.394Z,14.93
2018-07-28T06:11:08.020Z,15.37
2018-07-28T06:13:36.653Z,15.07
2018-07-28T06:16:05.350Z,16.07
2018-07-28T06:18:33.952Z,14.07
2018-07-28T06:21:02.691Z,14.20
2018-07-28T06:23:31.346Z,15.57
2018-07-28T06:26:00.045Z,14.70
2018-07-28T06:28:28.635Z,14.93
2018-07-28T06:30:57.275Z,24.27
2018-07-28T06:33:25.931Z,14.80
2018-07-28T06:35:54.630Z,15.57
2018-07-28T06:38:23.253Z,14.60
2018-07-28T06:40:51.869Z,14.73
2018-07-28T06:43:20.502Z,15.17
2018-07-28T06:46:59.242Z,14.70
2018-07-28T06:49:27.860Z,14.20
2018-07-28T06:51:56.516Z,13.57
2018-07-28T06:54:25.132Z,13.37
2018-07-28T06:56:53.735Z,12.23
2018-07-28T06:59:22.514Z,11.93
2018-07-28T07:01:51.186Z,12.90
2018-07-28T07:04:19.823Z,12.10
2018-07-28T07:06:48.498Z,11.30
2018-07-28T07:09:17.180Z,12.37
2018-07-28T07:11:45.880Z,14.47
2018-07-28T07:14:14.494Z,10.70
2018-07-28T07:16:43.169Z,11.57
2018-07-28T07:19:11.839Z,11.37
2018-07-28T07:21:40.473Z,11.90
2018-07-28T07:24:09.980Z,10.83
2018-07-28T07:26:38.595Z,12.87
2018-07-28T07:29:07.211Z,11.17
2018-07-28T07:31:35.858Z,10.67
2018-07-28T07:34:04.565Z,12.13
2018-07-28T07:36:33.223Z,12.30
2018-07-28T07:39:01.855Z,11.00
2018-07-28T07:41:30.529Z,10.30
2018-07-28T07:43:59.213Z,11.00
2018-07-28T07:46:27.800Z,10.97
2018-07-28T07:48:56.463Z,10.87
2018-07-28T07:51:25.547Z,11.07
2018-07-28T07:53:54.226Z,11.40
2018-07-28T07:56:22.848Z,15.13
2018-07-28T07:58:51.464Z,11.80
2018-07-28T08:01:20.167Z,10.47
2018-07-28T08:03:48.815Z,11.43
2018-07-28T08:06:17.514Z,11.03
2018-07-28T08:08:46.202Z,13.93
2018-07-28T08:11:14.894Z,10.60
2018-07-28T08:13:43.493Z,11.27
2018-07-28T08:16:12.189Z,11.13
2018-07-28T08:18:40.823Z,10.83
2018-07-28T08:21:09.429Z,30.97
2018-07-28T08:23:38.117Z,11.67
2018-07-28T08:26:06.953Z,10.70
2018-07-28T08:28:35.573Z,12.33
2018-07-28T08:31:04.299Z,11.87
2018-07-28T08:33:32.980Z,11.20
2018-07-28T08:36:01.639Z,10.13
2018-07-28T08:38:30.271Z,11.63
2018-07-28T08:40:59.238Z,11.03
2018-07-28T08:43:27.917Z,10.97
2018-07-28T08:45:56.577Z,11.00
2018-07-28T08:48:25.182Z,10.20
2018-07-28T08:50:53.858Z,11.13
2018-07-28T08:53:22.553Z,9.77
2018-07-28T08:55:51.159Z,9.63
2018-07-28T08:58:19.794Z,9.83
2018-07-28T09:00:48.438Z,16.90
2018-07-28T09:03:17.054Z,10.67
2018-07-28T09:05:45.661Z,10.87
2018-07-28T09:08:14.277Z,10.80
2018-07-28T09:10:42.975Z,9.93
2018-07-28T09:13:11.618Z,10.13
2018-07-28T09:15:40.263Z,9.77
2018-07-28T09:18:08.867Z,10.32
2018-07-28T09:20:37.490Z,10.27
2018-07-28T09:23:06.191Z,10.43
2018-07-28T09:25:34.874Z,10.27
2018-07-28T09:28:03.564Z,9.60
2018-07-28T09:30:32.887Z,8.77
2018-07-28T09:35:36.283Z,10.77
2018-07-28T09:38:04.983Z,9.27
2018-07-28T09:40:33.691Z,10.20
2018-07-28T09:43:02.381Z,10.43
2018-07-28T09:45:31.058Z,11.43
2018-07-28T09:47:59.666Z,9.20
2018-07-28T09:50:28.327Z,10.23
2018-07-28T09:52:56.966Z,10.07
2018-07-28T09:55:25.624Z,9.77
2018-07-28T09:57:54.284Z,9.57
2018-07-28T10:00:28.146Z,9.80
2018-07-28T10:02:56.811Z,8.73
2018-07-28T10:05:25.483Z,9.23
2018-07-28T10:07:54.167Z,9.70
2018-07-28T10:10:22.777Z,9.45
2018-07-28T10:12:51.418Z,8.73
2018-07-28T10:15:20.065Z,9.27
2018-07-28T10:17:48.787Z,9.10
2018-07-28T10:20:17.432Z,9.37
2018-07-28T10:22:46.176Z,9.50
2018-07-28T10:25:14.797Z,9.90
2018-07-28T10:27:43.393Z,9.93
2018-07-28T10:30:12.798Z,9.60
2018-07-28T10:32:41.370Z,9.17
2018-07-28T10:35:11.474Z,8.18
2018-07-28T10:37:40.180Z,9.18
2018-07-28T10:40:09.826Z,9.40
2018-07-28T10:42:38.923Z,10.58
2018-07-28T10:45:07.738Z,9.97
2018-07-28T10:47:36.454Z,9.77
2018-07-28T10:50:05.231Z,10.27
2018-07-28T10:52:33.920Z,9.90
2018-07-28T10:55:02.562Z,8.10
2018-07-28T10:57:31.170Z,8.93
2018-07-28T10:59:59.901Z,9.75
2018-07-28T11:02:28.585Z,9.60
2018-07-28T11:04:58.165Z,9.35
2018-07-28T11:07:26.766Z,8.88
2018-07-28T11:09:55.706Z,8.60
2018-07-28T11:12:24.364Z,8.10
2018-07-28T11:14:53.665Z,8.45
2018-07-28T11:17:22.295Z,8.53
2018-07-28T11:19:50.968Z,7.58
2018-07-28T11:22:19.616Z,8.33
2018-07-28T11:24:48.220Z,8.40
2018-07-28T11:27:16.879Z,8.45
2018-07-28T11:29:45.589Z,7.12
2018-07-28T11:32:25.411Z,7.60
2018-07-28T11:35:05.131Z,7.33
2018-07-28T13:51:45.912Z,9.58
2018-07-28T13:54:14.601Z,10.20
2018-07-28T13:56:43.411Z,10.27
2018-07-28T13:59:12.041Z,10.97
2018-07-28T14:01:40.691Z,9.40
2018-07-28T14:04:09.378Z,10.32
2018-07-28T14:06:38.007Z,10.48
2018-07-28T14:09:08.574Z,10.00
2018-07-28T14:11:37.281Z,9.85
2018-07-28T14:14:05.935Z,11.13
2018-07-28T14:16:34.717Z,11.15
2018-07-28T14:19:03.412Z,11.43
2018-07-28T14:21:32.110Z,11.13
2018-07-28T14:24:00.920Z,10.10
2018-07-28T14:26:29.622Z,10.65
2018-07-28T14:28:58.249Z,9.93
2018-07-28T14:31:27.049Z,10.93
2018-07-28T14:33:56.717Z,10.63
2018-07-28T14:36:25.303Z,10.20
2018-07-28T14:38:54.030Z,10.33
2018-07-28T14:41:22.701Z,10.28
2018-07-28T14:43:51.386Z,11.07
2018-07-28T14:46:20.020Z,10.87
2018-07-28T14:48:48.729Z,9.93
2018-07-28T14:51:17.389Z,9.25
2018-07-28T14:53:45.999Z,8.90
2018-07-28T14:56:14.911Z,8.80
2018-07-28T14:58:43.566Z,10.75
2018-07-28T15:01:12.199Z,9.30
2018-07-28T15:03:40.883Z,8.80
2018-07-28T15:06:09.551Z,7.85
2018-07-28T15:08:38.196Z,8.85
2018-07-28T15:11:06.858Z,8.43
2018-07-28T15:13:35.519Z,8.30
2018-07-28T15:16:04.248Z,8.48
2018-07-28T15:18:32.935Z,8.78
2018-07-28T15:21:01.620Z,7.60
2018-07-28T15:23:30.242Z,7.00
2018-07-28T15:25:58.953Z,8.08
2018-07-28T15:28:27.634Z,6.80
2018-07-28T15:30:56.360Z,7.10
2018-07-28T15:33:25.264Z,8.48
2018-07-28T15:35:53.896Z,8.70
2018-07-28T15:38:23.039Z,9.58
2018-07-28T15:40:51.740Z,9.58
2018-07-28T15:43:20.515Z,8.93
2018-07-28T15:45:49.165Z,8.53
2018-07-28T15:48:17.842Z,8.00
2018-07-28T15:50:46.492Z,8.58
2018-07-28T15:53:15.099Z,7.97
2018-07-28T15:55:44.033Z,7.70
2018-07-28T15:58:12.734Z,7.80
2018-07-28T16:00:42.219Z,8.05
2018-07-28T16:03:10.913Z,8.13
2018-07-28T16:05:39.775Z,8.25
2018-07-28T16:08:08.394Z,7.37
2018-07-28T16:10:37.077Z,7.35
2018-07-28T16:13:05.697Z,7.78
2018-07-28T16:15:34.298Z,8.00
2018-07-28T16:18:02.979Z,7.75
2018-07-28T16:20:31.606Z,10.08
2018-07-28T16:23:00.218Z,10.30
2018-07-28T16:25:28.848Z,8.23
2018-07-28T16:27:57.590Z,10.00
2018-07-28T16:30:27.306Z,8.10
2018-07-28T16:32:56.621Z,9.25
2018-07-28T16:35:25.214Z,10.53
2018-07-28T16:37:53.853Z,11.48
2018-07-28T16:40:22.497Z,12.13
2018-07-28T16:42:51.105Z,12.70
2018-07-28T16:45:19.799Z,11.95
2018-07-28T16:47:48.486Z,11.35
2018-07-28T16:50:17.146Z,13.85
2018-07-28T16:52:45.804Z,12.37
2018-07-28T16:55:14.472Z,12.70
2018-07-28T16:57:43.274Z,12.33
2018-07-28T17:00:12.977Z,11.55
2018-07-28T17:02:41.711Z,12.80
2018-07-28T17:05:10.423Z,12.15
2018-07-28T17:07:39.049Z,12.00
2018-07-28T17:10:07.784Z,12.70
2018-07-28T17:12:36.478Z,13.45
2018-07-28T17:15:05.477Z,13.55
2018-07-28T17:17:34.130Z,13.28
2018-07-28T17:20:02.842Z,13.00
2018-07-28T17:22:31.534Z,13.98
2018-07-28T17:25:00.193Z,15.13
2018-07-28T17:27:28.858Z,15.48
2018-07-28T17:29:57.446Z,14.90
2018-07-28T17:32:26.061Z,15.97
2018-07-28T17:34:54.713Z,15.10
2018-07-28T17:37:23.379Z,15.63
2018-07-28T17:39:52.027Z,15.87
2018-07-28T17:42:20.648Z,15.93
2018-07-28T17:44:50.896Z,15.33
2018-07-28T17:47:19.723Z,15.40
2018-07-28T17:49:48.432Z,16.73
2018-07-28T17:52:17.093Z,15.93
2018-07-28T17:54:45.769Z,16.63
2018-07-28T17:57:14.468Z,16.53
2018-07-28T17:59:43.158Z,17.23
2018-07-28T18:02:11.825Z,16.83
2018-07-28T18:04:40.922Z,24.03
2018-07-28T18:07:09.675Z,23.30
2018-07-28T18:09:38.315Z,29.87
2018-07-28T18:12:07.009Z,24.13
2018-07-28T18:14:35.645Z,21.43
2018-07-28T18:17:04.317Z,19.13
2018-07-28T18:19:33.316Z,19.23
2018-07-28T18:22:04.179Z,10.90
2018-07-28T18:24:33.023Z,15.03
2018-07-28T18:27:01.716Z,17.10
2018-07-28T18:29:30.422Z,17.57
2018-07-28T18:31:59.048Z,20.17
2018-07-28T18:34:28.687Z,19.80
2018-07-28T18:36:57.353Z,18.60
2018-07-28T18:39:25.992Z,18.27
2018-07-28T18:41:54.632Z,20.50
2018-07-28T18:44:23.293Z,16.03
2018-07-28T18:46:51.965Z,20.30
2018-07-28T18:49:20.576Z,23.97
2018-07-28T18:51:49.491Z,22.10
2018-07-28T18:54:18.918Z,18.73
2018-07-28T18:56:47.605Z,18.23
2018-07-28T18:59:16.490Z,19.67
2018-07-28T19:01:45.140Z,14.00
2018-07-28T19:04:14.623Z,13.33
2018-07-28T19:06:43.599Z,12.67
2018-07-28T19:09:17.493Z,13.80
2018-07-28T19:11:46.212Z,13.90
2018-07-28T19:14:20.168Z,14.20
2018-07-28T19:19:24.169Z,16.93
2018-07-28T19:21:53.855Z,17.30
2018-07-28T19:24:23.321Z,18.23
2018-07-28T19:26:51.924Z,18.27
2018-07-28T19:29:25.766Z,17.03
2018-07-28T19:31:54.394Z,16.10
2018-07-28T19:34:23.043Z,19.73
2018-07-28T19:36:56.863Z,17.80
2018-07-28T19:39:25.521Z,14.03
2018-07-28T19:41:59.372Z,13.97
2018-07-28T19:44:28.667Z,14.10
2018-07-28T19:46:57.324Z,13.60
2018-07-28T19:49:25.924Z,14.53
2018-07-28T19:51:54.555Z,14.20
2018-07-28T19:54:23.191Z,19.37
2018-07-28T19:56:51.788Z,15.90
2018-07-28T19:59:20.429Z,15.97
2018-07-28T20:01:49.063Z,16.03
2018-07-28T20:04:17.698Z,15.73
2018-07-28T20:06:46.747Z,18.73
2018-07-28T20:09:15.415Z,16.97
2018-07-28T20:11:44.140Z,18.13
2018-07-28T20:14:12.763Z,16.40
2018-07-28T20:16:41.384Z,17.27
2018-07-28T20:19:10.040Z,17.97
2018-07-28T20:21:38.747Z,17.73
2018-07-28T20:24:07.469Z,18.17
2018-07-28T20:26:36.223Z,18.77
2018-07-28T20:29:04.965Z,16.87
2018-07-28T20:31:33.612Z,14.87
2018-07-28T20:34:02.325Z,14.40
2018-07-28T20:36:31.006Z,14.83
2018-07-28T20:38:59.689Z,14.90
2018-07-28T20:41:28.431Z,16.23
2018-07-28T20:43:57.075Z,15.93
2018-07-28T20:46:25.767Z,15.17
2018-07-28T20:48:54.555Z,15.80
2018-07-28T20:51:23.374Z,14.10
2018-07-28T20:53:52.139Z,15.83
2018-07-28T20:56:21.624Z,19.20
2018-07-28T20:58:50.338Z,16.03
2018-07-28T21:01:18.971Z,16.93
2018-07-28T21:03:47.622Z,17.93
2018-07-28T21:06:16.270Z,19.67
2018-07-28T21:08:44.876Z,18.60
2018-07-28T21:11:14.667Z,19.97
2018-07-28T21:13:43.332Z,19.50
2018-07-28T21:16:11.963Z,20.27
2018-07-28T21:18:40.633Z,19.77
2018-07-28T21:21:09.054Z,19.93
2018-07-28T21:23:37.714Z,19.03
2018-07-28T21:26:06.980Z,17.70
2018-07-28T21:28:35.628Z,17.40
2018-07-28T21:31:04.313Z,16.23
2018-07-28T21:33:33.044Z,16.30
2018-07-28T21:36:01.645Z,15.23
2018-07-28T21:38:30.289Z,16.43
2018-07-28T21:40:58.972Z,15.50
2018-07-28T21:43:27.607Z,16.27
2018-07-28T21:45:56.299Z,18.53
2018-07-28T21:48:25.983Z,17.90
2018-07-28T21:50:54.615Z,15.20
2018-07-28T21:53:23.865Z,16.40
2018-07-28T21:55:52.633Z,17.73
2018-07-28T21:58:21.324Z,15.87
2018-07-28T22:00:58.378Z,16.30
2018-07-28T22:03:27.718Z,15.53
2018-07-28T22:05:56.390Z,16.00
2018-07-28T22:08:25.096Z,15.50
2018-07-28T22:10:54.123Z,13.33
2018-07-28T22:13:22.788Z,13.00
2018-07-28T22:15:51.612Z,14.13
2018-07-28T22:18:20.279Z,13.73
2018-07-28T22:20:49.258Z,14.70
2018-07-28T22:23:17.994Z,14.63
2018-07-28T22:25:46.696Z,14.50
2018-07-28T22:28:15.460Z,14.57
2018-07-28T22:30:44.238Z,16.23
2018-07-28T22:33:13.032Z,14.43
2018-07-28T22:35:41.726Z,15.20
2018-07-28T22:38:10.445Z,13.93
2018-07-28T22:40:39.151Z,14.13
2018-07-28T22:43:08.149Z,14.87
2018-07-28T22:45:36.849Z,15.00
2018-07-28T22:48:05.535Z,14.63
2018-07-28T22:50:34.252Z,13.70
2018-07-28T22:53:02.916Z,13.67
2018-07-28T22:55:31.575Z,13.73
2018-07-28T22:58:00.252Z,14.80
2018-07-28T23:00:28.926Z,14.20
2018-07-28T23:02:57.588Z,14.57
2018-07-28T23:05:26.255Z,14.07
2018-07-28T23:07:54.959Z,14.43
2018-07-28T23:10:23.931Z,13.87
2018-07-28T23:12:52.591Z,13.77
2018-07-28T23:15:21.290Z,14.57
2018-07-28T23:17:49.933Z,14.83
2018-07-28T23:20:18.648Z,14.07
2018-07-28T23:22:47.297Z,13.33
2018-07-28T23:25:15.983Z,15.07
2018-07-28T23:27:44.687Z,13.57
2018-07-28T23:30:13.575Z,13.50
2018-07-28T23:32:42.263Z,14.17
2018-07-28T23:39:47.479Z,13.30
2018-07-28T23:42:16.181Z,14.03
2018-07-28T23:44:44.886Z,13.63
2018-07-28T23:47:13.564Z,14.80
2018-07-28T23:49:42.266Z,14.23
2018-07-28T23:52:10.974Z,16.13
2018-07-28T23:54:39.707Z,13.83
2018-07-28T23:57:08.446Z,13.43
2018-07-28T23:59:37.156Z,15.67
